Wokal Field Glasgow International Airport
KGGW : now visible

Airfield :











YOU CAN JOIN US ON...

 
LOGIN :

Register | Disclaimer

   EN    FR    IT 

 









Legend :    VFR   Marginal VFR   IFR   Intensive IFR   Very Intensive IFR
Visi :
Ceiling :
>= 8 km
>= 3000ft
5 to 8 km
1000 to 3000 ft
1500m to 5 km
500 to 1000 ft
800 to 1500m
200 to 500 ft
< 800m
< 200 ft
Symbols :   Thunderstorms  Fog  Heavy snow  Heavy precipitations  Wind > 20 kt






- Airport Elevation : 2296 ft
- IATA code : GGW


KGGW - Wokal Field Glasgow International

CURRENT METAR :
  • 071953Z AUTO 32026G33KT 10SM BKN080 OVC110 14/M03 A2966 RMK AO2 PK WND 30034/1902 SLP053 T01441028

EXPIRED METARs :
  • 071853Z AUTO 28019G37KT 10SM BKN070 BKN085 OVC110 14/M04 A2966 RMK AO2 PK WND 30037/1845 SLP055 T01391039
  • 071753Z AUTO 31005KT 10SM FEW075 OVC100 13/M02 A2966 RMK AO2 SLP058 T01281017 10133 21017 58009

TAF KGGW
Valid from the 07 at 18:00 until the 08 at 18:00 UTC


071731Z 0718/0818 29020G28KT P6SM FEW080
FM072300 32018KT P6SM FEW100
FM080300 34013KT P6SM VCSH SCT060
FM080600 31011KT P6SM BKN070



MET'MAP, your aeronautical weather chart ! - Copyright ORBIFLY December 2007 - Disclaimer

ORBIFLY MET'MAP TEAM :

Programming & Development : Alexandra Zaïnal
Concept & original design : Baudouin d'Aumeries
Assistance for programming : Marc-Olivier Méhu
Technical & hardware support : Manuel Goepfert

Contact : metmap@orbifly.com




SOURCES & CREDITS :

   NOAA       Earth
Advisory